sensor_id;sensor_type;location;lat;lon;timestamp;P1;durP1;ratioP1;P2;durP2;ratioP2
19341;SDS011;9807;48.258;12.690;2022-08-26T20:20:02;19.17;;;14.40;;
19341;SDS011;9807;48.258;12.690;2022-08-26T20:22:48;15.47;;;12.83;;
19341;SDS011;9807;48.258;12.690;2022-08-26T20:25:14;16.73;;;12.83;;
19341;SDS011;9807;48.258;12.690;2022-08-26T20:27:40;18.30;;;12.03;;
19341;SDS011;9807;48.258;12.690;2022-08-26T20:30:07;15.77;;;11.70;;
19341;SDS011;9807;48.258;12.690;2022-08-26T20:32:33;17.43;;;12.50;;
19341;SDS011;9807;48.258;12.690;2022-08-26T20:35:00;17.03;;;12.73;;
19341;SDS011;9807;48.258;12.690;2022-08-26T20:37:27;15.77;;;12.27;;
19341;SDS011;9807;48.258;12.690;2022-08-26T20:39:53;14.60;;;11.83;;
19341;SDS011;9807;48.258;12.690;2022-08-26T20:42:19;15.40;;;11.67;;
19341;SDS011;9807;48.258;12.690;2022-08-26T20:44:45;14.27;;;11.20;;
19341;SDS011;9807;48.258;12.690;2022-08-26T20:47:11;14.70;;;10.77;;
19341;SDS011;9807;48.258;12.690;2022-08-26T20:49:37;13.40;;;10.37;;
19341;SDS011;9807;48.258;12.690;2022-08-26T20:52:02;15.77;;;10.80;;
19341;SDS011;9807;48.258;12.690;2022-08-26T20:54:29;14.77;;;11.17;;
19341;SDS011;9807;48.258;12.690;2022-08-26T20:56:55;14.00;;;10.23;;
19341;SDS011;9807;48.258;12.690;2022-08-26T20:59:22;16.40;;;10.33;;
19341;SDS011;9807;48.258;12.690;2022-08-26T21:01:47;13.33;;;10.70;;
19341;SDS011;9807;48.258;12.690;2022-08-26T21:04:15;12.77;;;9.87;;
19341;SDS011;9807;48.258;12.690;2022-08-26T21:06:43;14.17;;;10.50;;
19341;SDS011;9807;48.258;12.690;2022-08-26T21:09:10;12.53;;;9.80;;
19341;SDS011;9807;48.258;12.690;2022-08-26T21:11:38;13.97;;;10.53;;
19341;SDS011;9807;48.258;12.690;2022-08-26T21:14:05;15.93;;;9.80;;
19341;SDS011;9807;48.258;12.690;2022-08-26T21:16:33;15.17;;;9.80;;
19341;SDS011;9807;48.258;12.690;2022-08-26T21:19:00;23.30;;;12.47;;
19341;SDS011;9807;48.258;12.690;2022-08-26T21:21:28;14.40;;;10.80;;
19341;SDS011;9807;48.258;12.690;2022-08-26T21:23:54;11.57;;;9.50;;
19341;SDS011;9807;48.258;12.690;2022-08-26T21:26:20;10.83;;;8.90;;
19341;SDS011;9807;48.258;12.690;2022-08-26T21:28:47;12.13;;;9.63;;
19341;SDS011;9807;48.258;12.690;2022-08-26T21:31:14;16.17;;;11.63;;
19341;SDS011;9807;48.258;12.690;2022-08-26T21:33:41;12.90;;;9.83;;
19341;SDS011;9807;48.258;12.690;2022-08-26T21:36:10;11.90;;;9.00;;
19341;SDS011;9807;48.258;12.690;2022-08-26T21:38:37;11.07;;;8.93;;
19341;SDS011;9807;48.258;12.690;2022-08-26T21:41:04;16.20;;;11.03;;
19341;SDS011;9807;48.258;12.690;2022-08-26T21:43:38;11.00;;;8.93;;
19341;SDS011;9807;48.258;12.690;2022-08-26T21:46:07;12.03;;;9.20;;
19341;SDS011;9807;48.258;12.690;2022-08-26T21:48:41;11.50;;;8.80;;
19341;SDS011;9807;48.258;12.690;2022-08-26T21:51:34;12.70;;;8.90;;
19341;SDS011;9807;48.258;12.690;2022-08-26T21:54:03;11.10;;;8.60;;
19341;SDS011;9807;48.258;12.690;2022-08-26T21:56:31;11.73;;;8.97;;
19341;SDS011;9807;48.258;12.690;2022-08-26T21:58:59;13.27;;;8.70;;
19341;SDS011;9807;48.258;12.690;2022-08-26T22:01:28;9.33;;;8.30;;
19341;SDS011;9807;48.258;12.690;2022-08-26T22:03:58;9.90;;;8.40;;
19341;SDS011;9807;48.258;12.690;2022-08-26T22:06:27;12.37;;;9.37;;
19341;SDS011;9807;48.258;12.690;2022-08-26T22:08:54;11.37;;;9.27;;
19341;SDS011;9807;48.258;12.690;2022-08-26T22:11:20;11.57;;;8.83;;
19341;SDS011;9807;48.258;12.690;2022-08-26T22:13:46;12.13;;;8.30;;
19341;SDS011;9807;48.258;12.690;2022-08-26T22:16:14;12.63;;;8.43;;
19341;SDS011;9807;48.258;12.690;2022-08-26T22:18:40;15.00;;;9.57;;
19341;SDS011;9807;48.258;12.690;2022-08-26T22:21:10;16.10;;;10.90;;
19341;SDS011;9807;48.258;12.690;2022-08-26T22:23:39;20.27;;;12.23;;
19341;SDS011;9807;48.258;12.690;2022-08-26T22:26:05;18.47;;;12.93;;
19341;SDS011;9807;48.258;12.690;2022-08-26T22:28:32;21.83;;;13.70;;
19341;SDS011;9807;48.258;12.690;2022-08-26T22:30:58;20.20;;;13.20;;
19341;SDS011;9807;48.258;12.690;2022-08-26T22:33:24;24.50;;;14.00;;
19341;SDS011;9807;48.258;12.690;2022-08-26T22:35:50;20.17;;;13.10;;
19341;SDS011;9807;48.258;12.690;2022-08-26T22:38:17;23.70;;;13.93;;
19341;SDS011;9807;48.258;12.690;2022-08-26T22:40:44;19.37;;;13.47;;
19341;SDS011;9807;48.258;12.690;2022-08-26T22:43:13;21.07;;;13.50;;
19341;SDS011;9807;48.258;12.690;2022-08-26T22:45:41;22.27;;;13.67;;
19341;SDS011;9807;48.258;12.690;2022-08-26T22:48:10;20.17;;;13.67;;
19341;SDS011;9807;48.258;12.690;2022-08-26T22:50:39;21.87;;;13.67;;
19341;SDS011;9807;48.258;12.690;2022-08-26T22:53:06;23.70;;;12.90;;
19341;SDS011;9807;48.258;12.690;2022-08-26T22:55:32;21.33;;;14.17;;
19341;SDS011;9807;48.258;12.690;2022-08-26T22:57:58;19.00;;;13.07;;
19341;SDS011;9807;48.258;12.690;2022-08-26T23:00:24;16.20;;;11.43;;
19341;SDS011;9807;48.258;12.690;2022-08-26T23:02:50;12.27;;;9.73;;
19341;SDS011;9807;48.258;12.690;2022-08-26T23:05:15;13.40;;;9.30;;
19341;SDS011;9807;48.258;12.690;2022-08-26T23:07:41;14.03;;;9.73;;
19341;SDS011;9807;48.258;12.690;2022-08-26T23:10:10;18.70;;;10.87;;
19341;SDS011;9807;48.258;12.690;2022-08-26T23:12:35;13.40;;;10.23;;
19341;SDS011;9807;48.258;12.690;2022-08-26T23:15:05;12.57;;;8.80;;
19341;SDS011;9807;48.258;12.690;2022-08-26T23:17:33;11.33;;;7.77;;
19341;SDS011;9807;48.258;12.690;2022-08-26T23:19:59;9.10;;;8.10;;
19341;SDS011;9807;48.258;12.690;2022-08-26T23:22:25;9.13;;;7.47;;
19341;SDS011;9807;48.258;12.690;2022-08-26T23:24:51;11.07;;;8.00;;
19341;SDS011;9807;48.258;12.690;2022-08-26T23:27:17;11.57;;;7.87;;
19341;SDS011;9807;48.258;12.690;2022-08-26T23:29:43;9.93;;;7.50;;
19341;SDS011;9807;48.258;12.690;2022-08-26T23:32:09;14.27;;;8.00;;
19341;SDS011;9807;48.258;12.690;2022-08-26T23:34:34;8.33;;;7.50;;
19341;SDS011;9807;48.258;12.690;2022-08-26T23:37:19;8.07;;;7.07;;
19341;SDS011;9807;48.258;12.690;2022-08-26T23:39:45;10.53;;;7.43;;
19341;SDS011;9807;48.258;12.690;2022-08-26T23:42:11;10.37;;;8.03;;
19341;SDS011;9807;48.258;12.690;2022-08-26T23:44:38;9.90;;;8.37;;
19341;SDS011;9807;48.258;12.690;2022-08-26T23:47:04;10.00;;;7.80;;
19341;SDS011;9807;48.258;12.690;2022-08-26T23:49:31;7.43;;;6.57;;
19341;SDS011;9807;48.258;12.690;2022-08-26T23:51:57;8.53;;;6.60;;
19341;SDS011;9807;48.258;12.690;2022-08-26T23:54:43;13.87;;;9.53;;
19341;SDS011;9807;48.258;12.690;2022-08-26T23:57:12;18.10;;;11.13;;
19341;SDS011;9807;48.258;12.690;2022-08-26T23:59:39;20.13;;;11.47;;
